Time;durP1;ratioP1;P1;durP2;ratioP2;P2;SDS_P1;SDS_P2;PMS_P1;PMS_P2;Temp;Humidity;BMP_temperature;BMP_pressure;BME280_temperature;BME280_humidity;BME280_pressure;Samples;Min_cycle;Max_cycle;Signal;HPM_P1;HPM_P2
2022/07/23 00:01:32;;;;;;;4.97;4.57;;;26.70;74.20;;;;;;5033752;28;20229;-83
2022/07/23 00:04:01;;;;;;;5.13;4.72;;;26.70;74.00;;;;;;5033619;28;20210;-83
2022/07/23 00:06:31;;;;;;;11.60;5.18;;;26.70;74.40;;;;;;5033805;28;20230;-89
2022/07/23 00:08:59;;;;;;;6.90;4.68;;;26.70;74.80;;;;;;5033345;28;20237;-88
2022/07/23 00:11:28;;;;;;;4.82;4.40;;;26.70;75.50;;;;;;5033156;28;20249;-88
2022/07/23 00:13:59;;;;;;;5.65;4.88;;;26.70;74.40;;;;;;5033459;28;20284;-88
2022/07/23 00:16:27;;;;;;;5.65;5.05;;;26.70;74.00;;;;;;5033504;28;20269;-88
2022/07/23 00:18:56;;;;;;;5.10;4.65;;;26.70;74.00;;;;;;5033282;28;20206;-89
2022/07/23 00:21:24;;;;;;;5.45;4.95;;;26.80;74.30;;;;;;5033340;28;20234;-89
2022/07/23 00:23:54;;;;;;;4.70;4.30;;;26.70;73.60;;;;;;5033026;28;20237;-89
2022/07/23 00:26:22;;;;;;;4.78;4.38;;;26.70;73.70;;;;;;5033219;28;20293;-89
2022/07/23 00:28:50;;;;;;;5.05;4.63;;;26.80;73.70;;;;;;5032416;28;20233;-88
2022/07/23 00:31:20;;;;;;;5.10;4.60;;;26.80;73.60;;;;;;5033079;28;20254;-88
2022/07/23 00:33:48;;;;;;;4.63;4.15;;;26.80;73.80;;;;;;5033386;28;20206;-89
2022/07/23 00:36:16;;;;;;;5.55;5.05;;;26.70;73.60;;;;;;5033301;28;20206;-89
2022/07/23 00:38:45;;;;;;;12.20;5.13;;;26.70;73.80;;;;;;5033277;28;20290;-88
2022/07/23 00:41:14;;;;;;;3.95;3.65;;;26.70;74.00;;;;;;5033085;28;20263;-88
2022/07/23 00:43:43;;;;;;;4.75;4.38;;;26.70;73.60;;;;;;5032939;28;20305;-88
2022/07/23 00:46:11;;;;;;;5.50;4.50;;;26.70;74.00;;;;;;5032928;28;20230;-88
2022/07/23 00:48:40;;;;;;;5.20;4.70;;;26.70;74.20;;;;;;5032816;28;20211;-88
2022/07/23 00:51:08;;;;;;;4.88;4.45;;;26.60;73.90;;;;;;5032810;28;20334;-89
2022/07/23 00:53:36;;;;;;;5.03;4.50;;;26.60;73.50;;;;;;5032784;28;20229;-88
2022/07/23 00:56:05;;;;;;;6.72;5.10;;;26.60;74.20;;;;;;5032963;28;20289;-88
2022/07/23 00:58:36;;;;;;;4.93;4.43;;;26.60;75.00;;;;;;5032483;28;20297;-88
2022/07/23 01:01:05;;;;;;;6.68;5.13;;;26.60;74.40;;;;;;5033167;28;20226;-89
2022/07/23 01:03:33;;;;;;;4.55;4.15;;;26.60;74.40;;;;;;5032722;28;20269;-88
2022/07/23 01:06:02;;;;;;;5.00;4.60;;;26.60;75.00;;;;;;5032619;28;20202;-88
2022/07/23 01:08:30;;;;;;;5.47;4.85;;;26.60;75.10;;;;;;5032610;28;20241;-88
2022/07/23 01:10:59;;;;;;;7.38;5.05;;;26.50;74.90;;;;;;5032240;28;20317;-84
2022/07/23 01:13:27;;;;;;;5.28;4.82;;;26.50;75.20;;;;;;5032730;28;20228;-83
2022/07/23 01:15:57;;;;;;;4.55;4.15;;;26.50;74.80;;;;;;5033177;28;20229;-84
2022/07/23 01:18:25;;;;;;;5.40;4.93;;;26.50;75.00;;;;;;5032951;28;20230;-84
2022/07/23 01:20:54;;;;;;;5.70;5.10;;;26.40;75.50;;;;;;5032331;28;20238;-83
2022/07/23 01:23:23;;;;;;;6.55;4.97;;;26.40;75.40;;;;;;5032545;28;20214;-88
2022/07/23 01:25:54;;;;;;;6.00;5.40;;;26.40;75.00;;;;;;5032564;28;20285;-88
2022/07/23 01:28:23;;;;;;;5.55;5.05;;;26.40;76.20;;;;;;5032436;28;20241;-88
2022/07/23 01:30:51;;;;;;;7.78;4.60;;;26.40;75.60;;;;;;5032386;28;20309;-88
2022/07/23 01:33:19;;;;;;;4.90;4.50;;;26.30;76.40;;;;;;5032550;28;20210;-88
2022/07/23 01:35:47;;;;;;;4.88;4.57;;;26.20;78.20;;;;;;5032508;28;20237;-88
2022/07/23 01:38:18;;;;;;;7.18;5.85;;;26.00;79.80;;;;;;5032353;28;20206;-88
2022/07/23 01:40:48;;;;;;;5.32;4.93;;;25.80;82.70;;;;;;5036716;28;20280;-83
2022/07/23 01:43:22;;;;;;;6.00;5.40;;;25.60;84.20;;;;;;5036567;28;20205;-83
2022/07/23 01:45:52;;;;;;;8.50;5.93;;;25.50;85.90;;;;;;5036290;28;20214;-83
2022/07/23 01:48:21;;;;;;;5.85;5.35;;;25.40;87.70;;;;;;5035967;28;20215;-83
2022/07/23 01:50:49;;;;;;;7.95;6.18;;;25.40;88.90;;;;;;5036058;28;20226;-83
2022/07/23 01:53:20;;;;;;;7.00;6.32;;;25.40;90.10;;;;;;5036408;28;20214;-88
2022/07/23 01:55:50;;;;;;;9.98;5.78;;;25.40;90.60;;;;;;5036400;28;20245;-88
2022/07/23 01:58:18;;;;;;;7.72;7.03;;;25.40;91.20;;;;;;5036230;28;20260;-89
2022/07/23 02:00:46;;;;;;;8.07;6.40;;;25.50;91.70;;;;;;5035853;28;20281;-88
2022/07/23 02:03:15;;;;;;;5.80;5.30;;;25.50;92.40;;;;;;5036030;28;20214;-88
2022/07/23 02:05:43;;;;;;;7.63;6.20;;;25.50;92.80;;;;;;5035937;28;20207;-88
2022/07/23 02:08:11;;;;;;;6.07;5.63;;;25.50;93.10;;;;;;5035859;28;20218;-88
2022/07/23 02:10:39;;;;;;;6.28;5.68;;;25.60;93.30;;;;;;5035899;28;20442;-88
2022/07/23 02:13:09;;;;;;;9.27;6.20;;;25.60;93.60;;;;;;5035905;28;20237;-88
2022/07/23 02:15:45;;;;;;;6.32;5.72;;;25.60;93.80;;;;;;5036354;28;20201;-88
2022/07/23 02:18:14;;;;;;;5.20;4.85;;;25.60;93.90;;;;;;5035672;28;20206;-88
2022/07/23 02:20:44;;;;;;;6.50;5.93;;;25.70;94.20;;;;;;5035481;28;20321;-88
2022/07/23 02:23:12;;;;;;;6.10;5.43;;;25.70;94.60;;;;;;5035862;28;20206;-88
2022/07/23 02:25:41;;;;;;;6.40;5.63;;;25.80;95.00;;;;;;5036067;28;20261;-88
2022/07/23 02:28:11;;;;;;;5.95;5.45;;;25.80;95.20;;;;;;5035901;28;20251;-84
2022/07/23 02:30:39;;;;;;;6.20;5.70;;;25.80;95.10;;;;;;5035389;28;20246;-83
2022/07/23 02:33:08;;;;;;;5.80;5.38;;;25.80;95.30;;;;;;5035279;28;20253;-84
2022/07/23 02:35:37;;;;;;;6.32;5.57;;;25.90;95.30;;;;;;5035447;28;20266;-83
2022/07/23 02:38:05;;;;;;;6.32;5.82;;;25.90;95.30;;;;;;5035352;28;20207;-88
2022/07/23 02:40:33;;;;;;;6.55;5.78;;;25.90;94.00;;;;;;5034875;28;20306;-88
2022/07/23 02:43:01;;;;;;;7.32;6.00;;;26.00;95.30;;;;;;5035281;28;20289;-88
2022/07/23 02:45:31;;;;;;;6.72;5.32;;;25.80;96.70;;;;;;5034710;28;20406;-88
2022/07/23 02:47:59;;;;;;;6.78;6.07;;;25.70;97.80;;;;;;5034922;28;20206;-88
2022/07/23 02:50:27;;;;;;;5.80;5.40;;;25.70;98.60;;;;;;5033792;28;20257;-88
2022/07/23 02:52:56;;;;;;;7.65;6.95;;;25.70;99.30;;;;;;5034927;28;20253;-88
2022/07/23 02:55:24;;;;;;;7.35;6.68;;;25.60;99.90;;;;;;5034810;28;20226;-88
2022/07/23 02:57:53;;;;;;;6.72;6.18;;;25.60;99.90;;;;;;5035092;28;20202;-88
2022/07/23 03:00:21;;;;;;;5.97;5.47;;;25.60;99.90;;;;;;5034711;28;20234;-88
2022/07/23 03:02:51;;;;;;;6.78;6.20;;;25.60;99.90;;;;;;5034995;28;20211;-88
2022/07/23 03:05:19;;;;;;;7.35;6.30;;;25.60;99.90;;;;;;5034965;28;20199;-89
2022/07/23 03:07:47;;;;;;;7.45;5.90;;;25.70;99.90;;;;;;5034932;28;20290;-88
2022/07/23 03:10:15;;;;;;;6.18;5.70;;;25.70;99.90;;;;;;5034484;28;20257;-88
2022/07/23 03:12:44;;;;;;;6.88;6.28;;;25.70;99.90;;;;;;5034499;28;20291;-88
2022/07/23 03:15:12;;;;;;;6.38;5.88;;;25.70;99.90;;;;;;5034741;28;20289;-88
2022/07/23 03:17:40;;;;;;;6.00;5.50;;;25.70;99.90;;;;;;5034681;28;20352;-88
2022/07/23 03:20:11;;;;;;;5.97;5.47;;;25.70;99.90;;;;;;5034567;28;20268;-88
2022/07/23 03:22:39;;;;;;;6.68;6.05;;;25.70;99.90;;;;;;5034619;28;20270;-88
2022/07/23 03:25:09;;;;;;;6.47;5.88;;;25.70;99.90;;;;;;5034351;28;20206;-88
2022/07/23 03:27:38;;;;;;;6.80;5.40;;;25.70;99.90;;;;;;5034426;28;20206;-83
2022/07/23 03:30:07;;;;;;;7.75;6.85;;;25.70;99.90;;;;;;5034134;28;20234;-84
2022/07/23 03:32:35;;;;;;;7.28;6.60;;;25.70;99.90;;;;;;5034170;28;20226;-83
2022/07/23 03:35:04;;;;;;;6.90;6.30;;;25.80;99.90;;;;;;5034544;28;20206;-84
2022/07/23 03:37:36;;;;;;;12.75;5.68;;;25.80;99.90;;;;;;5033945;28;20206;-83
2022/07/23 03:40:06;;;;;;;6.88;6.22;;;25.80;99.90;;;;;;5033879;28;20241;-83
2022/07/23 03:42:36;;;;;;;6.60;6.00;;;25.80;99.90;;;;;;5034215;28;20310;-84
2022/07/23 03:45:06;;;;;;;6.43;5.93;;;25.70;99.90;;;;;;5034453;28;20218;-83
2022/07/23 03:47:34;;;;;;;6.72;6.22;;;25.80;99.90;;;;;;5034096;28;20238;-83
2022/07/23 03:50:03;;;;;;;6.22;5.63;;;25.80;99.90;;;;;;5033796;28;20305;-83
2022/07/23 03:52:31;;;;;;;6.05;5.60;;;25.80;99.90;;;;;;5033561;28;20236;-83
2022/07/23 03:55:01;;;;;;;6.70;6.10;;;25.80;99.90;;;;;;5033474;28;20217;-83
2022/07/23 03:57:30;;;;;;;8.52;5.80;;;25.80;99.90;;;;;;5033900;28;20202;-88
2022/07/23 03:59:58;;;;;;;6.75;6.07;;;25.80;99.90;;;;;;5033587;28;20265;-88
2022/07/23 04:02:26;;;;;;;6.10;5.60;;;25.80;99.90;;;;;;5034048;28;20202;-88
2022/07/23 04:04:54;;;;;;;6.32;5.63;;;25.70;99.90;;;;;;5033586;28;20214;-88
2022/07/23 04:07:23;;;;;;;6.50;5.90;;;25.80;99.90;;;;;;5033506;28;20217;-88
2022/07/23 04:09:51;;;;;;;5.97;5.47;;;25.70;99.90;;;;;;5033387;28;20298;-88
2022/07/23 04:12:21;;;;;;;7.65;6.65;;;25.70;99.90;;;;;;5033362;28;20223;-88
2022/07/23 04:14:50;;;;;;;6.82;5.75;;;25.80;99.90;;;;;;5033238;28;20210;-83
2022/07/23 04:17:18;;;;;;;8.00;6.03;;;25.80;99.90;;;;;;5033801;28;20206;-88
2022/07/23 04:22:16;;;;;;;7.32;6.63;;;25.90;99.90;;;;;;5050153;28;20293;-90
2022/07/23 04:24:44;;;;;;;6.75;6.18;;;25.90;99.90;;;;;;5051955;28;20293;-90
2022/07/23 04:27:12;;;;;;;9.55;5.60;;;25.90;99.90;;;;;;5053273;28;20226;-90
2022/07/23 04:29:42;;;;;;;6.22;5.72;;;25.80;99.90;;;;;;5052661;28;20228;-91
2022/07/23 04:32:10;;;;;;;5.38;4.97;;;25.90;99.90;;;;;;5033418;28;20206;-90
2022/07/23 04:34:39;;;;;;;5.85;5.35;;;25.90;99.90;;;;;;5033399;28;20230;-90
2022/07/23 04:37:07;;;;;;;6.07;5.57;;;26.00;99.90;;;;;;5033171;28;20262;-91
2022/07/23 04:39:35;;;;;;;6.18;5.68;;;26.00;99.90;;;;;;5032790;28;20225;-91
2022/07/23 04:42:04;;;;;;;6.07;5.57;;;26.10;99.90;;;;;;5032819;28;20238;-91
2022/07/23 04:44:32;;;;;;;5.95;5.43;;;26.10;99.90;;;;;;5032969;28;20285;-91
2022/07/23 04:47:02;;;;;;;5.82;5.32;;;26.10;99.90;;;;;;5032901;28;20206;-90
2022/07/23 04:49:30;;;;;;;6.25;5.68;;;26.20;99.90;;;;;;5032794;28;20241;-90
2022/07/23 04:51:59;;;;;;;5.68;5.28;;;26.20;99.90;;;;;;5032713;28;20222;-90
2022/07/23 04:54:27;;;;;;;9.05;5.53;;;26.20;99.90;;;;;;5032442;28;20250;-90
2022/07/23 04:56:55;;;;;;;6.13;5.63;;;26.20;99.90;;;;;;5032926;28;20214;-91
2022/07/23 04:59:24;;;;;;;6.75;5.93;;;26.20;99.90;;;;;;5032683;28;20210;-91
2022/07/23 05:01:52;;;;;;;6.53;5.95;;;26.20;99.90;;;;;;5033005;28;20251;-91
2022/07/23 05:04:22;;;;;;;6.00;5.45;;;26.10;99.90;;;;;;5032567;28;20202;-90
2022/07/23 05:06:50;;;;;;;9.50;5.65;;;26.10;99.90;;;;;;5032662;28;20218;-91
2022/07/23 05:09:19;;;;;;;6.38;5.65;;;26.10;99.90;;;;;;5032535;28;20234;-91
2022/07/23 05:11:47;;;;;;;4.72;4.43;;;26.00;99.90;;;;;;5032713;28;20226;-90
2022/07/23 05:14:15;;;;;;;6.32;5.75;;;26.10;99.90;;;;;;5031832;28;20227;-91
2022/07/23 05:16:44;;;;;;;6.10;5.18;;;26.00;99.90;;;;;;5032526;28;20202;-91
2022/07/23 05:19:12;;;;;;;5.50;5.05;;;26.00;99.90;;;;;;5032486;28;20280;-91
2022/07/23 05:21:42;;;;;;;7.07;5.90;;;26.00;99.90;;;;;;5032475;28;20334;-91
2022/07/23 05:24:10;;;;;;;6.60;5.45;;;26.00;99.90;;;;;;5032242;28;20237;-91
2022/07/23 05:26:38;;;;;;;5.90;4.80;;;26.00;99.90;;;;;;5032540;28;20302;-91
2022/07/23 05:29:07;;;;;;;5.90;5.32;;;26.00;99.90;;;;;;5032320;28;20241;-91
2022/07/23 05:31:35;;;;;;;4.90;4.50;;;26.00;99.90;;;;;;5032403;28;20238;-90
2022/07/23 05:34:04;;;;;;;7.90;6.32;;;26.10;99.90;;;;;;5032202;28;20218;-91
2022/07/23 05:36:32;;;;;;;6.60;5.78;;;26.10;99.90;;;;;;5032557;28;20294;-91
2022/07/23 05:39:02;;;;;;;6.05;5.55;;;26.20;99.90;;;;;;5032206;28;20206;-91
2022/07/23 05:41:32;;;;;;;5.78;5.30;;;26.20;99.90;;;;;;5032122;28;20284;-90
2022/07/23 05:44:00;;;;;;;5.82;5.43;;;26.20;99.90;;;;;;5032380;28;20289;-91
2022/07/23 05:46:29;;;;;;;5.47;5.07;;;26.20;99.90;;;;;;5032113;28;20218;-91
2022/07/23 05:48:57;;;;;;;6.53;5.22;;;26.20;99.90;;;;;;5031812;28;20266;-91
2022/07/23 05:51:26;;;;;;;6.00;5.50;;;26.40;99.90;;;;;;5032594;28;20253;-90
2022/07/23 05:53:55;;;;;;;6.70;6.05;;;26.50;99.90;;;;;;5032384;28;20246;-91
2022/07/23 05:56:24;;;;;;;6.05;5.55;;;26.60;99.90;;;;;;5032211;28;20207;-91
2022/07/23 05:58:53;;;;;;;6.00;5.55;;;26.70;99.90;;;;;;5031910;28;20219;-90
2022/07/23 06:01:21;;;;;;;5.05;4.72;;;26.80;99.90;;;;;;5032310;28;20226;-89
2022/07/23 06:03:49;;;;;;;6.25;5.72;;;26.90;99.90;;;;;;5032332;28;20210;-91
2022/07/23 06:06:18;;;;;;;6.45;5.95;;;27.00;99.90;;;;;;5032119;28;20211;-91
2022/07/23 06:08:46;;;;;;;6.97;5.90;;;27.10;99.90;;;;;;5032123;28;20223;-90
2022/07/23 06:11:14;;;;;;;5.75;5.15;;;27.20;99.90;;;;;;5031875;28;20296;-90
2022/07/23 06:13:44;;;;;;;4.72;4.32;;;27.20;99.90;;;;;;5031918;28;20320;-90
2022/07/23 06:16:12;;;;;;;5.30;4.78;;;27.10;99.90;;;;;;5031909;28;20242;-90
2022/07/23 06:18:41;;;;;;;5.35;4.85;;;27.10;99.90;;;;;;5032046;28;20282;-90
2022/07/23 06:21:09;;;;;;;5.47;4.97;;;27.10;99.90;;;;;;5031760;28;20261;-90
2022/07/23 06:23:58;;;;;;;5.40;4.90;;;27.10;99.90;;;;;;5031713;28;20202;-90
2022/07/23 06:26:26;;;;;;;5.43;4.97;;;27.10;99.90;;;;;;5033496;28;20262;-90
2022/07/23 06:28:56;;;;;;;5.10;4.60;;;27.20;99.90;;;;;;5035540;28;20293;-90
2022/07/23 06:31:24;;;;;;;5.43;5.00;;;27.30;99.90;;;;;;5035456;28;20218;-90
2022/07/23 06:33:53;;;;;;;5.30;4.90;;;27.30;99.90;;;;;;5035126;28;20290;-90
2022/07/23 06:36:21;;;;;;;4.72;4.32;;;27.20;99.90;;;;;;5035584;28;20294;-90
2022/07/23 06:38:50;;;;;;;6.40;4.38;;;27.10;99.90;;;;;;5035174;28;20210;-89
2022/07/23 06:41:19;;;;;;;5.00;4.57;;;27.10;99.50;;;;;;5035356;28;20229;-89
2022/07/23 06:43:47;;;;;;;4.07;3.88;;;27.10;99.30;;;;;;5035224;28;20207;-90
2022/07/23 06:46:17;;;;;;;5.13;4.13;;;27.20;98.80;;;;;;5035100;28;20301;-90
2022/07/23 06:48:45;;;;;;;4.30;3.95;;;27.30;98.40;;;;;;5034913;28;20233;-90
2022/07/23 06:51:14;;;;;;;4.85;4.10;;;27.40;97.80;;;;;;5035111;28;20227;-90
2022/07/23 06:53:42;;;;;;;4.20;3.90;;;27.60;97.90;;;;;;5034823;28;20325;-90
2022/07/23 06:56:10;;;;;;;4.57;3.97;;;27.70;97.20;;;;;;5034887;28;20210;-90
2022/07/23 06:58:39;;;;;;;4.18;3.83;;;27.70;96.90;;;;;;5034704;28;20210;-90
2022/07/23 07:01:07;;;;;;;4.85;4.43;;;27.90;96.50;;;;;;5034626;28;20226;-90
2022/07/23 07:03:37;;;;;;;4.40;4.00;;;28.10;96.30;;;;;;5035085;28;20204;-90
2022/07/23 07:06:05;;;;;;;3.65;3.35;;;28.30;95.60;;;;;;5034835;28;20260;-90
2022/07/23 07:08:33;;;;;;;3.90;3.60;;;28.40;94.40;;;;;;5034438;28;20298;-90
2022/07/23 07:11:02;;;;;;;5.57;3.55;;;28.50;93.90;;;;;;5034662;28;20246;-90
2022/07/23 07:13:30;;;;;;;3.78;3.47;;;28.50;92.70;;;;;;5034321;28;20207;-90
2022/07/23 07:15:58;;;;;;;4.55;3.67;;;28.70;92.50;;;;;;5035160;28;20211;-90
2022/07/23 07:18:27;;;;;;;3.58;3.30;;;28.90;91.70;;;;;;5034469;28;20213;-90
2022/07/23 07:20:58;;;;;;;4.18;3.85;;;29.00;91.30;;;;;;5034628;28;20242;-90
2022/07/23 07:23:26;;;;;;;2.75;2.55;;;29.00;90.60;;;;;;5034003;28;20210;-90
2022/07/23 07:25:54;;;;;;;4.32;3.47;;;29.00;90.50;;;;;;5034656;28;20270;-90
2022/07/23 07:28:23;;;;;;;3.70;3.38;;;29.10;90.70;;;;;;5034472;28;20210;-89
2022/07/23 07:30:51;;;;;;;3.75;3.45;;;29.10;90.50;;;;;;5034242;28;20250;-90
2022/07/23 07:33:20;;;;;;;3.58;3.25;;;29.50;90.20;;;;;;5034460;28;20212;-90
2022/07/23 07:35:49;;;;;;;3.28;2.97;;;29.80;89.00;;;;;;5033981;28;20277;-90
2022/07/23 07:38:19;;;;;;;2.67;2.47;;;30.20;88.50;;;;;;5033999;28;20319;-90
2022/07/23 07:40:47;;;;;;;3.03;2.83;;;30.60;86.50;;;;;;5034239;28;20249;-90
2022/07/23 07:43:16;;;;;;;3.10;2.90;;;31.20;84.00;;;;;;5034168;28;20210;-90
2022/07/23 07:45:44;;;;;;;3.63;3.33;;;31.30;82.50;;;;;;5034188;28;20210;-90
2022/07/23 07:48:13;;;;;;;2.95;2.72;;;31.40;82.40;;;;;;5033871;28;20234;-90
2022/07/23 07:50:41;;;;;;;3.78;3.40;;;31.60;81.50;;;;;;5033565;28;20345;-90
2022/07/23 07:53:09;;;;;;;2.65;2.50;;;32.10;79.90;;;;;;5034037;28;20285;-90
2022/07/23 07:55:39;;;;;;;3.85;3.28;;;32.00;78.90;;;;;;5033695;28;20314;-90
2022/07/23 07:58:07;;;;;;;2.92;2.75;;;32.00;78.40;;;;;;5034026;28;20285;-90
2022/07/23 08:00:36;;;;;;;4.75;3.67;;;32.30;77.80;;;;;;5033530;28;20245;-90
2022/07/23 08:03:04;;;;;;;3.95;3.53;;;32.90;76.70;;;;;;5033245;28;20244;-90
2022/07/23 08:05:33;;;;;;;3.33;3.13;;;33.30;75.50;;;;;;5033966;28;20201;-90
2022/07/23 08:08:01;;;;;;;3.50;3.28;;;33.30;74.70;;;;;;5033650;28;20252;-90
2022/07/23 08:10:31;;;;;;;3.67;3.38;;;33.30;74.20;;;;;;5033242;28;20229;-90
2022/07/23 08:13:01;;;;;;;3.35;3.10;;;33.10;75.00;;;;;;5033693;28;20228;-90
2022/07/23 08:15:31;;;;;;;3.15;2.85;;;33.00;73.90;;;;;;5033015;28;20222;-90
2022/07/23 08:18:00;;;;;;;3.10;2.90;;;32.70;73.70;;;;;;5033697;28;20197;-91
2022/07/23 08:20:29;;;;;;;3.55;3.25;;;32.80;73.40;;;;;;5033312;28;20241;-90
2022/07/23 08:22:59;;;;;;;3.40;3.20;;;32.80;73.40;;;;;;5033534;28;20209;-90
2022/07/23 08:25:28;;;;;;;2.85;2.70;;;32.80;73.40;;;;;;5033076;28;20248;-90
2022/07/23 08:27:58;;;;;;;3.60;3.30;;;33.50;73.40;;;;;;5034000;28;20209;-90
2022/07/23 08:30:30;;;;;;;3.55;3.25;;;33.60;71.60;;;;;;5033472;28;20221;-91
2022/07/23 08:33:00;;;;;;;3.03;2.83;;;33.30;71.70;;;;;;5033366;28;20209;-90
2022/07/23 08:35:31;;;;;;;4.63;3.15;;;32.90;72.00;;;;;;5032952;28;20233;-91
2022/07/23 08:38:01;;;;;;;3.42;3.13;;;33.50;71.20;;;;;;5033188;28;20229;-91
2022/07/23 08:40:31;;;;;;;4.70;3.35;;;34.40;69.80;;;;;;5033108;28;20226;-91
2022/07/23 08:43:00;;;;;;;3.53;3.22;;;35.30;67.40;;;;;;5033285;28;20232;-91
2022/07/23 08:45:30;;;;;;;3.28;2.97;;;36.00;66.30;;;;;;5032996;28;20226;-91
2022/07/23 08:47:59;;;;;;;3.08;2.88;;;37.20;62.40;;;;;;5032740;28;20255;-91
2022/07/23 08:50:36;;;;;;;2.97;2.88;;;36.40;61.50;;;;;;5032318;28;20229;-91
2022/07/23 08:53:08;;;;;;;3.67;3.38;;;35.80;61.80;;;;;;5032781;28;20209;-91
2022/07/23 08:55:36;;;;;;;3.25;3.05;;;35.70;61.70;;;;;;5032862;28;20214;-91
2022/07/23 08:58:05;;;;;;;3.58;3.28;;;35.90;62.90;;;;;;5032794;28;20287;-91
2022/07/23 09:00:34;;;;;;;3.35;3.13;;;36.30;61.60;;;;;;5032484;28;20244;-91
2022/07/23 09:03:04;;;;;;;3.08;2.80;;;36.10;61.60;;;;;;5032620;28;20229;-91
2022/07/23 09:05:32;;;;;;;3.28;2.97;;;36.10;60.90;;;;;;5032590;28;20222;-91
2022/07/23 09:08:12;;;;;;;3.50;3.30;;;35.40;61.40;;;;;;5032359;28;20228;-91
2022/07/23 09:10:48;;;;;;;3.53;3.33;;;34.50;63.60;;;;;;5032780;28;20241;-91
2022/07/23 09:13:34;;;;;;;3.88;3.58;;;34.60;64.60;;;;;;5032978;28;20293;-90
2022/07/23 09:16:07;;;;;;;4.05;3.65;;;34.30;65.20;;;;;;5032587;28;20290;-91
2022/07/23 09:18:43;;;;;;;3.97;3.67;;;34.90;64.00;;;;;;5032447;28;20229;-91
2022/07/23 09:21:21;;;;;;;3.63;3.40;;;35.60;62.50;;;;;;5032673;28;20233;-91
2022/07/23 09:23:52;;;;;;;3.75;3.45;;;36.40;62.10;;;;;;5032370;28;20233;-92
2022/07/23 09:26:36;;;;;;;3.85;3.55;;;37.10;60.30;;;;;;5032608;28;20225;-91
2022/07/23 09:29:11;;;;;;;8.52;3.90;;;36.80;59.60;;;;;;5032159;28;20305;-92
2022/07/23 09:31:52;;;;;;;5.43;3.53;;;36.90;59.90;;;;;;5032271;28;20252;-92
2022/07/23 09:34:22;;;;;;;3.30;3.10;;;36.80;59.80;;;;;;5032519;28;20209;-92
2022/07/23 09:36:54;;;;;;;3.40;3.08;;;36.20;58.20;;;;;;5032307;28;20222;-92
2022/07/23 09:39:30;;;;;;;3.85;3.55;;;36.20;59.80;;;;;;5032549;28;20241;-92
2022/07/23 09:41:59;;;;;;;4.88;3.67;;;36.40;58.10;;;;;;5032323;28;20222;-92
2022/07/23 09:44:27;;;;;;;3.90;3.40;;;36.30;58.80;;;;;;5032243;28;20206;-92
2022/07/23 09:47:01;;;;;;;3.78;3.47;;;36.20;59.10;;;;;;5032443;28;20206;-93
2022/07/23 09:49:30;;;;;;;4.43;3.17;;;36.60;58.50;;;;;;5032193;28;20206;-92
2022/07/23 09:52:01;;;;;;;3.47;3.17;;;36.70;57.30;;;;;;5032263;28;20222;-92
2022/07/23 09:54:32;;;;;;;3.40;3.15;;;36.50;57.30;;;;;;5032520;28;20286;-92
2022/07/23 09:57:05;;;;;;;3.83;3.53;;;36.40;58.00;;;;;;5032047;28;20230;-92
2022/07/23 09:59:35;;;;;;;3.20;3.00;;;35.70;58.00;;;;;;5032354;28;20241;-92
2022/07/23 10:02:07;;;;;;;3.60;3.40;;;35.10;59.40;;;;;;5033473;28;20317;-92
2022/07/23 10:04:35;;;;;;;4.15;3.85;;;35.10;60.10;;;;;;5033496;28;20229;-92
2022/07/23 10:07:07;;;;;;;3.70;3.42;;;36.00;60.30;;;;;;5033757;28;20268;-93
2022/07/23 10:09:38;;;;;;;4.78;3.38;;;36.70;59.10;;;;;;5033677;28;20205;-93
2022/07/23 10:15:00;;;;;;;3.60;3.33;;;38.60;56.70;;;;;;5031296;28;20313;-93
2022/07/23 10:17:31;;;;;;;4.68;4.25;;;39.50;55.80;;;;;;5033374;28;20213;-92
2022/07/23 10:19:59;;;;;;;4.07;3.70;;;39.50;56.60;;;;;;5033055;28;20260;-93
2022/07/23 10:22:32;;;;;;;3.53;3.22;;;40.10;54.20;;;;;;5115503;22;20349;-84
2022/07/23 10:25:11;;;;;;;3.63;3.33;;;40.40;53.50;;;;;;5052053;28;20205;-83
2022/07/23 10:28:03;;;;;;;4.10;3.58;;;39.80;52.70;;;;;;5053514;28;20292;-88
2022/07/23 10:30:43;;;;;;;3.58;3.28;;;39.80;53.30;;;;;;5053221;28;20205;-89
2022/07/23 10:33:25;;;;;;;3.70;3.40;;;39.40;53.30;;;;;;5053590;28;20205;-88
2022/07/23 10:36:02;;;;;;;4.10;3.65;;;38.40;54.20;;;;;;5053563;28;20225;-89
2022/07/23 10:38:35;;;;;;;6.00;3.90;;;38.20;54.80;;;;;;5052941;28;20217;-89
2022/07/23 10:41:06;;;;;;;3.90;3.60;;;38.40;55.10;;;;;;5053339;28;20317;-89
2022/07/23 10:43:34;;;;;;;4.32;4.03;;;38.30;55.10;;;;;;5052942;28;20228;-89
2022/07/23 10:46:22;;;;;;;4.18;3.83;;;37.60;55.30;;;;;;5053015;28;20300;-89
2022/07/23 10:49:23;;;;;;;4.05;3.72;;;36.90;56.10;;;;;;5052771;28;20217;-89
2022/07/23 10:52:19;;;;;;;4.75;4.28;;;36.90;56.60;;;;;;5052805;28;20225;-88
2022/07/23 10:54:50;;;;;;;4.63;4.00;;;36.60;56.90;;;;;;5052879;28;20213;-89
2022/07/23 10:57:21;;;;;;;6.03;4.78;;;36.20;57.00;;;;;;5052832;28;20233;-89
2022/07/23 11:00:25;;;;;;;3.80;3.50;;;36.30;57.50;;;;;;5052691;28;20217;-89
2022/07/23 11:02:56;;;;;;;4.22;3.83;;;36.10;57.90;;;;;;5052696;28;20228;-89
2022/07/23 11:05:30;;;;;;;4.75;4.32;;;36.00;58.10;;;;;;5052511;28;20212;-89
2022/07/23 11:08:28;;;;;;;4.57;4.07;;;35.70;58.90;;;;;;5052757;28;20209;-89
2022/07/23 11:11:10;;;;;;;4.90;4.50;;;35.70;58.90;;;;;;5052391;28;20237;-89
2022/07/23 11:13:45;;;;;;;4.95;4.15;;;35.60;59.20;;;;;;5052650;28;20309;-88
2022/07/23 11:16:26;;;;;;;4.82;4.28;;;35.70;59.60;;;;;;5052514;28;20351;-84
2022/07/23 11:19:01;;;;;;;4.50;4.20;;;35.70;59.40;;;;;;5052192;28;20220;-89
2022/07/23 11:21:50;;;;;;;4.85;4.40;;;35.70;59.70;;;;;;5052352;28;20236;-89
2022/07/23 11:24:21;;;;;;;5.57;5.07;;;35.60;59.50;;;;;;5052279;28;20213;-89
2022/07/23 11:27:03;;;;;;;5.57;4.57;;;35.10;60.50;;;;;;5052445;28;20233;-89
2022/07/23 11:29:45;;;;;;;4.47;4.18;;;35.10;60.60;;;;;;5052047;28;20228;-89
2022/07/23 11:32:29;;;;;;;4.55;4.20;;;35.40;60.60;;;;;;5052759;28;20240;-89
2022/07/23 11:34:57;;;;;;;4.85;4.45;;;36.00;59.60;;;;;;5054471;28;20305;-88
2022/07/23 11:37:37;;;;;;;4.82;3.97;;;35.80;59.20;;;;;;5054009;28;20221;-90
2022/07/23 11:40:09;;;;;;;5.47;4.72;;;35.40;60.40;;;;;;5054240;28;20217;-89
2022/07/23 11:42:39;;;;;;;4.10;3.80;;;35.70;60.00;;;;;;5054070;28;20225;-89
2022/07/23 11:45:09;;;;;;;4.45;4.15;;;36.10;59.90;;;;;;5054172;28;20268;-89
2022/07/23 11:47:38;;;;;;;4.90;4.50;;;36.40;58.90;;;;;;5054110;28;20280;-89
2022/07/23 11:50:07;;;;;;;5.82;3.90;;;36.90;58.70;;;;;;5053604;28;20212;-89
2022/07/23 11:52:37;;;;;;;4.72;4.32;;;37.20;58.60;;;;;;5053905;28;20281;-89
2022/07/23 11:55:08;;;;;;;4.68;4.28;;;37.40;58.30;;;;;;5054362;28;20269;-89
2022/07/23 11:57:39;;;;;;;4.57;4.28;;;37.20;58.40;;;;;;5053825;28;20328;-89
2022/07/23 12:00:10;;;;;;;3.83;3.53;;;37.00;58.80;;;;;;5053609;28;20251;-89
2022/07/23 12:02:39;;;;;;;4.80;4.35;;;36.70;58.70;;;;;;5053677;28;20237;-89
2022/07/23 12:05:10;;;;;;;6.05;4.60;;;36.80;58.60;;;;;;5053648;28;20197;-89
2022/07/23 12:07:43;;;;;;;4.65;4.28;;;36.30;59.00;;;;;;5053728;28;20292;-89
2022/07/23 12:10:15;;;;;;;5.03;4.63;;;35.40;59.90;;;;;;5053586;28;20198;-89
2022/07/23 12:12:45;;;;;;;4.68;4.38;;;35.10;60.90;;;;;;5053562;28;20298;-89
2022/07/23 12:15:15;;;;;;;4.28;3.88;;;34.80;60.90;;;;;;5053401;28;20201;-89
2022/07/23 12:17:45;;;;;;;4.47;4.07;;;34.40;61.50;;;;;;5052977;28;20250;-89
2022/07/23 12:20:22;;;;;;;5.00;4.50;;;34.20;62.10;;;;;;5053228;28;20289;-89
2022/07/23 12:22:54;;;;;;;4.38;4.03;;;34.10;62.10;;;;;;5053304;28;20256;-89
2022/07/23 12:25:24;;;;;;;4.15;3.85;;;33.90;62.20;;;;;;5053221;28;20347;-88
2022/07/23 12:28:02;;;;;;;4.65;4.35;;;33.40;62.80;;;;;;5053496;28;20233;-89
2022/07/23 12:30:33;;;;;;;4.45;4.15;;;33.20;63.50;;;;;;5052786;28;20224;-89
2022/07/23 12:33:02;;;;;;;4.63;4.07;;;33.40;63.30;;;;;;5053282;28;20201;-89
2022/07/23 12:35:34;;;;;;;4.65;4.15;;;33.50;63.00;;;;;;5053107;28;20224;-89
2022/07/23 12:38:04;;;;;;;4.28;3.90;;;33.40;62.50;;;;;;5052964;28;20303;-89
2022/07/23 12:40:34;;;;;;;4.75;4.35;;;33.30;62.80;;;;;;5053233;28;20260;-89
2022/07/23 12:43:05;;;;;;;4.35;3.95;;;32.80;63.20;;;;;;5053231;28;20229;-89
2022/07/23 12:45:46;;;;;;;4.25;3.85;;;32.50;63.90;;;;;;5053158;28;20226;-89
2022/07/23 12:48:26;;;;;;;14.77;3.45;;;32.20;64.50;;;;;;5052685;28;20247;-89
2022/07/23 12:50:58;;;;;;;3.78;3.47;;;32.00;64.50;;;;;;5052857;28;20225;-89
2022/07/23 12:53:30;;;;;;;4.78;4.15;;;31.90;64.20;;;;;;5052898;28;20285;-89
2022/07/23 12:56:05;;;;;;;3.75;3.45;;;31.80;64.00;;;;;;5053002;28;20268;-89
2022/07/23 12:58:48;;;;;;;3.30;3.10;;;31.80;63.70;;;;;;5052148;28;20222;-89
2022/07/23 13:01:27;;;;;;;4.35;3.47;;;31.90;64.40;;;;;;5052780;28;20233;-89
2022/07/23 13:03:59;;;;;;;2.85;2.65;;;31.70;61.30;;;;;;5052746;28;20260;-89
2022/07/23 13:06:28;;;;;;;3.28;2.97;;;31.50;60.80;;;;;;5052619;28;20225;-89
2022/07/23 13:08:58;;;;;;;2.60;2.40;;;31.30;60.20;;;;;;5052717;28;20265;-89